createdAt,value
2022-09-10T00:01:35.581Z,11.20
2022-09-10T00:04:05.049Z,10.93
2022-09-10T00:06:35.545Z,10.97
2022-09-10T00:09:06.735Z,11.10
2022-09-10T00:11:35.390Z,11.03
2022-09-10T00:14:05.525Z,10.70
2022-09-10T00:16:34.183Z,11.47
2022-09-10T00:19:03.275Z,11.43
2022-09-10T00:21:32.146Z,11.40
2022-09-10T00:24:01.992Z,11.20
2022-09-10T00:26:35.356Z,11.30
2022-09-10T00:29:03.595Z,11.40
2022-09-10T00:31:34.033Z,10.77
2022-09-10T00:34:03.495Z,11.30
2022-09-10T00:36:35.941Z,10.80
2022-09-10T00:39:07.274Z,11.40
2022-09-10T00:41:39.271Z,11.50
2022-09-10T00:44:30.630Z,11.27
2022-09-10T00:47:01.512Z,11.30
2022-09-10T00:49:34.924Z,11.50
2022-09-10T00:52:03.764Z,11.00
2022-09-10T00:54:34.324Z,11.43
2022-09-10T00:57:08.111Z,11.00
2022-09-10T00:59:37.523Z,11.67
2022-09-10T01:02:06.194Z,11.40
2022-09-10T01:04:34.696Z,10.77
2022-09-10T01:07:03.382Z,10.63
2022-09-10T01:09:31.836Z,10.53
2022-09-10T01:12:16.404Z,10.97
2022-09-10T01:15:06.331Z,11.20
2022-09-10T01:17:45.725Z,10.87
2022-09-10T01:20:32.451Z,10.40
2022-09-10T01:23:22.766Z,10.63
2022-09-10T01:26:04.487Z,11.37
2022-09-10T01:28:40.138Z,10.40
2022-09-10T01:31:14.726Z,10.63
2022-09-10T01:33:50.397Z,10.90
2022-09-10T01:36:23.814Z,10.40
2022-09-10T01:38:53.013Z,11.37
2022-09-10T01:41:25.984Z,10.90
2022-09-10T01:43:56.153Z,10.30
2022-09-10T01:46:39.345Z,10.33
2022-09-10T01:49:26.865Z,11.03
2022-09-10T01:52:16.933Z,10.23
2022-09-10T01:54:57.814Z,10.27
2022-09-10T01:57:38.909Z,10.20
2022-09-10T02:00:14.074Z,11.20
2022-09-10T02:02:46.874Z,10.20
2022-09-10T02:05:17.873Z,10.70
2022-09-10T02:07:54.506Z,11.47
2022-09-10T02:10:23.736Z,10.77
2022-09-10T02:12:52.277Z,11.80
2022-09-10T02:15:40.570Z,10.77
2022-09-10T02:18:20.040Z,11.53
2022-09-10T02:21:09.097Z,10.57
2022-09-10T02:23:42.944Z,10.60
2022-09-10T02:26:15.475Z,10.50
2022-09-10T02:28:44.738Z,10.63
2022-09-10T02:31:15.214Z,10.07
2022-09-10T02:33:43.721Z,10.50
2022-09-10T02:36:13.288Z,10.37
2022-09-10T02:38:41.624Z,10.90
2022-09-10T02:41:10.755Z,10.47
2022-09-10T02:43:39.101Z,10.50
2022-09-10T02:46:08.093Z,11.03
2022-09-10T02:48:40.222Z,10.00
2022-09-10T02:51:10.052Z,10.10
2022-09-10T02:53:39.910Z,10.37
2022-09-10T02:56:09.538Z,10.60
2022-09-10T02:58:38.677Z,9.93
2022-09-10T03:01:09.081Z,9.53
2022-09-10T03:03:40.296Z,10.23
2022-09-10T03:06:09.447Z,10.40
2022-09-10T03:08:38.100Z,10.23
2022-09-10T03:11:07.245Z,10.27
2022-09-10T03:13:36.167Z,10.30
2022-09-10T03:16:05.106Z,11.13
2022-09-10T03:18:35.457Z,10.93
2022-09-10T03:21:14.928Z,10.90
2022-09-10T03:23:44.906Z,10.30
2022-09-10T03:26:15.954Z,10.80
2022-09-10T03:28:45.915Z,10.17
2022-09-10T03:31:16.655Z,10.63
2022-09-10T03:33:49.217Z,10.80
2022-09-10T03:36:20.927Z,11.00
2022-09-10T03:38:50.934Z,11.07
2022-09-10T03:41:19.234Z,11.37
2022-09-10T03:43:49.584Z,10.93
2022-09-10T03:46:17.907Z,11.57
2022-09-10T03:48:52.034Z,10.70
2022-09-10T03:51:27.537Z,11.20
2022-09-10T03:53:57.087Z,11.00
2022-09-10T03:56:25.915Z,11.07
2022-09-10T03:58:54.314Z,11.20
2022-09-10T04:01:22.807Z,11.00
2022-09-10T04:03:51.172Z,11.30
2022-09-10T04:06:19.465Z,11.07
2022-09-10T04:08:52.853Z,11.23
2022-09-10T04:11:27.602Z,10.90
2022-09-10T04:13:57.627Z,10.93
2022-09-10T04:16:27.475Z,11.33
2022-09-10T04:18:56.316Z,10.67
2022-09-10T04:21:24.665Z,10.43
2022-09-10T04:23:57.326Z,9.97
2022-09-10T04:26:26.827Z,10.47
2022-09-10T04:28:55.198Z,9.87
2022-09-10T04:31:23.690Z,10.50
2022-09-10T04:33:55.838Z,10.30
2022-09-10T04:36:27.156Z,10.43
2022-09-10T04:38:58.244Z,10.77
2022-09-10T04:41:26.624Z,10.70
2022-09-10T04:43:55.746Z,10.43
2022-09-10T04:46:24.844Z,10.73
2022-09-10T04:48:55.447Z,10.70
2022-09-10T04:51:26.181Z,10.40
2022-09-10T04:53:58.055Z,10.60
2022-09-10T04:56:31.023Z,10.00
2022-09-10T04:59:00.986Z,10.07
2022-09-10T05:01:32.046Z,10.43
2022-09-10T05:04:00.535Z,10.63
2022-09-10T05:06:28.854Z,10.33
2022-09-10T05:08:59.154Z,9.83
2022-09-10T05:11:28.104Z,9.60
2022-09-10T05:13:56.406Z,9.73
2022-09-10T05:16:28.885Z,10.07
2022-09-10T05:18:57.333Z,9.33
2022-09-10T05:21:27.337Z,10.13
2022-09-10T05:23:58.063Z,10.50
2022-09-10T05:26:28.337Z,10.17
2022-09-10T05:28:59.778Z,10.20
2022-09-10T05:31:28.985Z,10.10
2022-09-10T05:33:59.385Z,10.10
2022-09-10T05:36:27.878Z,9.97
2022-09-10T05:38:56.426Z,9.73
2022-09-10T05:41:26.286Z,9.70
2022-09-10T05:43:56.483Z,9.37
2022-09-10T05:46:24.856Z,10.03
2022-09-10T05:48:56.073Z,9.77
2022-09-10T05:51:28.089Z,10.03
2022-09-10T05:53:57.647Z,10.07
2022-09-10T05:56:28.175Z,10.27
2022-09-10T05:58:57.417Z,10.30
2022-09-10T06:01:26.093Z,9.53
2022-09-10T06:03:56.296Z,9.87
2022-09-10T06:06:28.236Z,10.73
2022-09-10T06:09:05.226Z,10.20
2022-09-10T06:11:49.279Z,9.60
2022-09-10T06:14:20.449Z,10.50
2022-09-10T06:16:50.000Z,10.30
2022-09-10T06:19:19.919Z,9.80
2022-09-10T06:21:50.375Z,9.50
2022-09-10T06:24:19.851Z,9.70
2022-09-10T06:26:51.535Z,9.97
2022-09-10T06:29:20.385Z,9.40
2022-09-10T06:31:49.365Z,9.43
2022-09-10T06:34:19.345Z,10.53
2022-09-10T06:36:49.437Z,10.77
2022-09-10T06:39:19.106Z,10.00
2022-09-10T06:41:53.304Z,9.83
2022-09-10T06:44:40.426Z,10.50
2022-09-10T06:48:18.714Z,9.50
2022-09-10T06:50:13.013Z,10.50
2022-09-10T06:52:44.629Z,10.10
2022-09-10T06:55:16.026Z,10.60
2022-09-10T06:57:47.927Z,10.70
2022-09-10T07:00:18.415Z,10.97
2022-09-10T07:02:53.465Z,10.30
2022-09-10T07:05:23.233Z,9.47
2022-09-10T07:07:52.589Z,9.17
2022-09-10T07:10:23.116Z,8.80
2022-09-10T07:13:13.854Z,8.00
2022-09-10T07:15:46.797Z,8.40
2022-09-10T07:18:17.171Z,8.80
2022-09-10T07:20:47.193Z,8.18
2022-09-10T07:23:19.249Z,8.60
2022-09-10T07:25:50.870Z,8.60
2022-09-10T07:28:42.877Z,8.70
2022-09-10T07:31:17.287Z,7.93
2022-09-10T07:33:47.625Z,8.20
2022-09-10T07:36:16.824Z,9.00
2022-09-10T07:38:48.045Z,8.60
2022-09-10T07:41:16.793Z,8.27
2022-09-10T07:43:46.428Z,8.30
2022-09-10T07:46:20.520Z,8.30
2022-09-10T07:48:56.709Z,7.90
2022-09-10T07:51:26.375Z,7.80
2022-09-10T07:53:57.606Z,7.30
2022-09-10T07:56:31.967Z,6.90
2022-09-10T07:59:03.565Z,7.47
2022-09-10T08:01:37.953Z,7.68
2022-09-10T08:04:07.436Z,7.32
2022-09-10T08:06:39.100Z,8.00
2022-09-10T08:09:08.282Z,7.57
2022-09-10T08:11:42.029Z,7.57
2022-09-10T08:14:15.364Z,7.30
2022-09-10T08:16:48.256Z,8.18
2022-09-10T08:19:18.156Z,8.18
2022-09-10T08:21:47.735Z,8.43
2022-09-10T08:24:22.166Z,8.60
2022-09-10T08:26:52.733Z,8.40
2022-09-10T08:29:22.457Z,8.30
2022-09-10T08:31:52.041Z,9.15
2022-09-10T08:34:26.366Z,8.15
2022-09-10T08:37:03.343Z,7.63
2022-09-10T08:39:33.600Z,8.18
2022-09-10T08:42:07.154Z,8.65
2022-09-10T08:44:49.146Z,8.60
2022-09-10T08:47:32.255Z,8.27
2022-09-10T08:50:13.277Z,9.13
2022-09-10T08:52:48.925Z,9.00
2022-09-10T08:55:31.613Z,8.30
2022-09-10T08:58:04.727Z,8.40
2022-09-10T09:00:39.199Z,8.75
2022-09-10T09:03:20.881Z,8.02
2022-09-10T09:05:53.784Z,8.25
2022-09-10T09:08:29.929Z,8.20
2022-09-10T09:11:11.986Z,8.38
2022-09-10T09:14:00.853Z,8.85
2022-09-10T09:16:59.734Z,8.90
2022-09-10T09:19:35.055Z,8.73
2022-09-10T09:22:18.353Z,8.50
2022-09-10T09:24:57.458Z,8.52
2022-09-10T09:27:30.424Z,8.50
2022-09-10T09:30:03.540Z,8.70
2022-09-10T09:32:41.069Z,8.60
2022-09-10T09:35:23.880Z,8.45
2022-09-10T09:38:06.067Z,8.70
2022-09-10T09:40:44.908Z,8.55
2022-09-10T09:43:24.098Z,8.80
2022-09-10T09:45:54.194Z,8.75
2022-09-10T09:48:26.347Z,8.00
2022-09-10T09:50:57.413Z,8.10
2022-09-10T09:53:27.566Z,8.35
2022-09-10T09:55:57.936Z,8.10
2022-09-10T09:58:33.589Z,8.25
2022-09-10T10:01:24.424Z,8.43
2022-09-10T10:03:58.893Z,9.20
2022-09-10T10:06:30.180Z,8.50
2022-09-10T10:09:01.416Z,8.10
2022-09-10T10:11:49.821Z,8.50
2022-09-10T10:14:26.746Z,8.27
2022-09-10T10:17:00.404Z,8.70
2022-09-10T10:19:34.207Z,7.90
2022-09-10T10:22:21.986Z,8.63
2022-09-10T10:24:52.639Z,7.80
2022-09-10T10:27:27.852Z,8.60
2022-09-10T10:29:59.084Z,8.32
2022-09-10T10:32:40.947Z,8.55
2022-09-10T10:35:34.153Z,8.25
2022-09-10T10:38:35.144Z,7.70
2022-09-10T10:41:46.119Z,6.70
2022-09-10T10:44:37.334Z,6.70
2022-09-10T10:47:27.539Z,6.60
2022-09-10T10:50:04.475Z,6.80
2022-09-10T10:52:44.613Z,7.10
2022-09-10T10:55:23.508Z,7.15
2022-09-10T10:58:13.136Z,6.90
2022-09-10T11:00:44.806Z,7.70
2022-09-10T11:03:19.606Z,7.45
2022-09-10T11:05:51.555Z,7.05
2022-09-10T11:08:28.967Z,6.85
2022-09-10T11:11:01.916Z,6.13
2022-09-10T11:13:37.813Z,6.80
2022-09-10T11:16:11.779Z,6.45
2022-09-10T11:18:46.342Z,6.85
2022-09-10T11:21:21.855Z,7.38
2022-09-10T11:23:57.357Z,6.97
2022-09-10T11:26:30.012Z,8.18
2022-09-10T11:29:22.534Z,7.05
2022-09-10T11:31:59.247Z,7.45
2022-09-10T11:34:34.659Z,6.63
2022-09-10T11:37:13.004Z,6.82
2022-09-10T11:39:48.305Z,6.93
2022-09-10T11:42:36.495Z,7.30
2022-09-10T11:45:18.235Z,6.95
2022-09-10T11:47:52.137Z,7.30
2022-09-10T11:50:32.353Z,6.72
2022-09-10T11:53:07.661Z,6.68
2022-09-10T11:55:52.505Z,7.13
2022-09-10T11:58:26.994Z,6.80
2022-09-10T12:01:03.325Z,6.70
2022-09-10T12:03:47.774Z,6.43
2022-09-10T12:06:22.302Z,7.28
2022-09-10T12:09:10.102Z,7.20
2022-09-10T12:11:52.578Z,6.13
2022-09-10T12:14:21.867Z,6.35
2022-09-10T12:16:55.254Z,6.20
2022-09-10T12:19:29.316Z,6.53
2022-09-10T12:22:01.325Z,6.00
2022-09-10T12:24:32.134Z,6.05
2022-09-10T12:27:05.292Z,6.38
2022-09-10T12:29:36.755Z,6.32
2022-09-10T12:32:38.549Z,6.60
2022-09-10T12:35:46.480Z,6.38
2022-09-10T12:39:03.695Z,6.32
2022-09-10T12:41:57.940Z,5.97
2022-09-10T12:44:46.873Z,6.78
2022-09-10T12:47:41.186Z,6.63
2022-09-10T12:50:31.615Z,6.68
2022-09-10T12:53:36.180Z,6.60
2022-09-10T12:56:32.755Z,6.75
2022-09-10T12:59:19.606Z,6.30
2022-09-10T13:01:52.367Z,6.32
2022-09-10T13:04:28.516Z,6.22
2022-09-10T13:07:00.264Z,6.60
2022-09-10T13:09:31.876Z,6.60
2022-09-10T13:12:04.795Z,6.72
2022-09-10T13:14:36.875Z,6.65
2022-09-10T13:17:07.426Z,6.47
2022-09-10T13:19:51.077Z,6.53
2022-09-10T13:22:58.004Z,7.32
2022-09-10T13:25:37.025Z,6.45
2022-09-10T13:28:44.205Z,6.15
2022-09-10T13:31:19.677Z,6.57
2022-09-10T13:34:05.497Z,6.35
2022-09-10T13:36:42.707Z,6.15
2022-09-10T13:39:37.578Z,6.57
2022-09-10T13:42:35.483Z,6.40
2022-09-10T13:45:22.868Z,6.85
2022-09-10T13:47:58.534Z,6.80
2022-09-10T13:50:32.684Z,7.00
2022-09-10T13:53:04.633Z,7.05
2022-09-10T13:55:34.155Z,6.82
2022-09-10T13:58:09.348Z,6.70
2022-09-10T14:00:43.189Z,6.28
2022-09-10T14:03:23.210Z,6.90
2022-09-10T14:05:57.382Z,6.20
2022-09-10T14:08:30.800Z,6.88
2022-09-10T14:11:02.244Z,7.22
2022-09-10T14:13:35.169Z,6.75
2022-09-10T14:16:05.959Z,6.95
2022-09-10T14:18:42.867Z,6.82
2022-09-10T14:21:15.102Z,6.88
2022-09-10T14:23:47.915Z,6.57
2022-09-10T14:26:23.610Z,6.60
2022-09-10T14:28:54.746Z,6.10
2022-09-10T14:31:31.306Z,6.13
2022-09-10T14:34:00.345Z,6.70
2022-09-10T14:36:35.950Z,6.53
2022-09-10T14:39:06.924Z,6.53
2022-09-10T14:41:37.809Z,6.40
2022-09-10T14:44:40.010Z,6.97
2022-09-10T14:47:16.369Z,7.20
2022-09-10T14:49:47.275Z,7.65
2022-09-10T14:52:17.084Z,7.90
2022-09-10T14:54:47.164Z,7.63
2022-09-10T14:57:17.197Z,7.38
2022-09-10T14:59:47.625Z,7.57
2022-09-10T15:02:20.985Z,7.72
2022-09-10T15:04:49.400Z,7.40
2022-09-10T15:07:19.058Z,7.47
2022-09-10T15:09:48.068Z,7.25
2022-09-10T15:12:23.935Z,7.30
2022-09-10T15:14:52.595Z,7.40
2022-09-10T15:17:21.246Z,6.63
2022-09-10T15:19:49.946Z,7.45
2022-09-10T15:22:23.757Z,7.38
2022-09-10T15:25:09.109Z,7.20
2022-09-10T15:27:38.345Z,6.72
2022-09-10T15:30:08.023Z,7.07
2022-09-10T15:32:36.566Z,7.28
2022-09-10T15:35:05.797Z,6.97
2022-09-10T15:37:35.493Z,7.37
2022-09-10T15:40:04.542Z,7.30
2022-09-10T15:42:33.173Z,7.70
2022-09-10T15:45:01.508Z,7.50
2022-09-10T15:47:33.430Z,7.60
2022-09-10T15:50:01.775Z,7.30
2022-09-10T15:52:30.184Z,7.53
2022-09-10T15:54:59.777Z,7.50
2022-09-10T15:57:28.336Z,7.50
2022-09-10T15:59:56.617Z,7.80
2022-09-10T16:02:25.180Z,7.40
2022-09-10T16:04:53.966Z,7.33
2022-09-10T16:07:22.365Z,8.07
2022-09-10T16:09:50.774Z,7.67
2022-09-10T16:12:20.406Z,7.80
2022-09-10T16:14:48.753Z,7.87
2022-09-10T16:17:17.447Z,8.17
2022-09-10T16:19:45.804Z,8.00
2022-09-10T16:22:17.492Z,8.27
2022-09-10T16:24:48.382Z,8.00
2022-09-10T16:27:17.639Z,8.10
2022-09-10T16:29:48.709Z,7.93
2022-09-10T16:32:17.059Z,8.67
2022-09-10T16:34:45.347Z,8.70
2022-09-10T16:37:14.296Z,8.30
2022-09-10T16:39:42.659Z,8.70
2022-09-10T16:42:10.989Z,8.80
2022-09-10T16:44:41.258Z,9.27
2022-09-10T16:47:10.836Z,9.07
2022-09-10T16:49:39.249Z,9.13
2022-09-10T16:52:08.948Z,8.50
2022-09-10T16:54:38.474Z,8.10
2022-09-10T16:57:06.784Z,8.70
2022-09-10T16:59:35.215Z,8.90
2022-09-10T17:02:04.737Z,8.90
2022-09-10T17:04:34.725Z,8.87
2022-09-10T17:07:03.027Z,9.17
2022-09-10T17:09:31.301Z,8.40
2022-09-10T17:12:00.608Z,8.90
2022-09-10T17:14:28.788Z,8.80
2022-09-10T17:16:57.383Z,9.20
2022-09-10T17:19:26.520Z,8.80
2022-09-10T17:21:57.100Z,8.40
2022-09-10T17:24:28.222Z,8.80
2022-09-10T17:26:56.753Z,9.03
2022-09-10T17:29:26.665Z,8.03
2022-09-10T17:31:57.459Z,7.97
2022-09-10T17:34:27.192Z,8.30
2022-09-10T17:36:56.996Z,8.50
2022-09-10T17:39:28.349Z,8.20
2022-09-10T17:41:57.175Z,8.50
2022-09-10T17:44:26.912Z,8.67
2022-09-10T17:46:55.718Z,8.70
2022-09-10T17:49:24.448Z,9.00
2022-09-10T17:51:53.343Z,8.73
2022-09-10T17:54:23.471Z,8.63
2022-09-10T17:56:51.899Z,8.40
2022-09-10T17:59:21.314Z,9.00
2022-09-10T18:01:49.699Z,9.70
2022-09-10T18:04:19.034Z,9.13
2022-09-10T18:06:52.034Z,9.77
2022-09-10T18:09:23.618Z,10.23
2022-09-10T18:11:52.506Z,10.30
2022-09-10T18:14:22.259Z,9.87
2022-09-10T18:16:51.437Z,10.40
2022-09-10T18:19:20.140Z,10.23
2022-09-10T18:21:51.086Z,10.50
2022-09-10T18:24:22.740Z,10.80
2022-09-10T18:26:54.690Z,9.93
2022-09-10T18:29:24.565Z,10.67
2022-09-10T18:31:55.801Z,10.17
2022-09-10T18:34:27.680Z,10.60
2022-09-10T18:36:58.239Z,10.17
2022-09-10T18:39:28.398Z,9.60
2022-09-10T18:41:59.007Z,10.27
2022-09-10T18:44:29.806Z,9.80
2022-09-10T18:46:58.431Z,10.10
2022-09-10T18:49:27.787Z,10.07
2022-09-10T18:51:57.411Z,10.00
2022-09-10T18:54:28.742Z,10.00
2022-09-10T18:56:58.524Z,10.43
2022-09-10T18:59:27.224Z,9.70
2022-09-10T19:01:56.104Z,10.70
2022-09-10T19:04:26.821Z,11.20
2022-09-10T19:06:55.501Z,10.63
2022-09-10T19:09:25.077Z,10.40
2022-09-10T19:11:54.993Z,10.30
2022-09-10T19:14:27.230Z,11.10
2022-09-10T19:16:56.491Z,11.00
2022-09-10T19:19:27.447Z,10.40
2022-09-10T19:21:59.369Z,10.30
2022-09-10T19:24:51.063Z,10.43
2022-09-10T19:27:16.299Z,10.53
2022-09-10T19:29:47.395Z,10.50
2022-09-10T19:32:17.140Z,10.60
2022-09-10T19:34:45.737Z,11.00
2022-09-10T19:37:14.718Z,11.03
2022-09-10T19:39:43.091Z,10.83
2022-09-10T19:42:12.620Z,10.80
2022-09-10T19:44:41.014Z,10.77
2022-09-10T19:47:10.656Z,10.30
2022-09-10T19:49:39.208Z,12.10
2022-09-10T19:52:07.514Z,10.43
2022-09-10T19:54:35.767Z,9.90
2022-09-10T19:57:04.140Z,10.30
2022-09-10T19:59:32.438Z,10.10
2022-09-10T20:02:01.023Z,9.90
2022-09-10T20:04:30.725Z,10.27
2022-09-10T20:06:59.015Z,10.37
2022-09-10T20:09:27.398Z,10.03
2022-09-10T20:11:55.737Z,10.60
2022-09-10T20:14:23.997Z,10.53
2022-09-10T20:16:52.825Z,10.23
2022-09-10T20:19:22.173Z,11.07
2022-09-10T20:21:51.862Z,11.33
2022-09-10T20:24:20.306Z,11.10
2022-09-10T20:26:49.166Z,11.10
2022-09-10T20:29:19.191Z,11.30
2022-09-10T20:31:48.649Z,10.50
2022-09-10T20:34:19.517Z,10.60
2022-09-10T20:36:48.715Z,10.17
2022-09-10T20:39:21.911Z,11.00
2022-09-10T20:41:50.346Z,10.63
2022-09-10T20:44:19.953Z,11.10
2022-09-10T20:46:48.442Z,10.77
2022-09-10T20:49:17.346Z,11.10
2022-09-10T20:51:46.233Z,10.67
2022-09-10T20:54:16.705Z,11.07
2022-09-10T20:56:46.903Z,10.70
2022-09-10T20:59:16.440Z,10.70
2022-09-10T21:01:46.545Z,10.20
2022-09-10T21:04:15.646Z,10.60
2022-09-10T21:06:43.891Z,10.60
2022-09-10T21:09:12.445Z,10.57
2022-09-10T21:11:41.236Z,10.70
2022-09-10T21:14:12.798Z,10.30
2022-09-10T21:16:43.203Z,10.70
2022-09-10T21:19:13.469Z,10.70
2022-09-10T21:21:44.991Z,10.97
2022-09-10T21:24:15.072Z,10.73
2022-09-10T21:26:44.376Z,10.63
2022-09-10T21:29:15.651Z,10.37
2022-09-10T21:31:45.403Z,9.30
2022-09-10T21:34:14.924Z,10.00
2022-09-10T21:36:43.878Z,9.90
2022-09-10T21:39:17.365Z,9.73
2022-09-10T21:41:47.472Z,10.43
2022-09-10T21:44:19.813Z,10.40
2022-09-10T21:46:49.195Z,10.33
2022-09-10T21:49:17.897Z,10.30
2022-09-10T21:51:46.887Z,10.67
2022-09-10T21:54:18.623Z,9.63
2022-09-10T21:56:47.006Z,10.10
2022-09-10T21:59:16.982Z,10.37
2022-09-10T22:01:47.108Z,9.67
2022-09-10T22:04:22.136Z,10.10
2022-09-10T22:06:51.948Z,9.97
2022-09-10T22:09:21.418Z,10.90
2022-09-10T22:11:52.043Z,10.83
2022-09-10T22:14:23.788Z,10.23
2022-09-10T22:16:52.802Z,10.60
2022-09-10T22:19:23.584Z,10.13
2022-09-10T22:21:54.147Z,10.37
2022-09-10T22:24:22.582Z,10.13
2022-09-10T22:26:51.455Z,10.43
2022-09-10T22:29:21.885Z,10.20
2022-09-10T22:31:50.772Z,10.17
2022-09-10T22:34:20.795Z,10.20
2022-09-10T22:36:49.567Z,10.70
2022-09-10T22:39:19.634Z,11.13
2022-09-10T22:41:48.998Z,10.97
2022-09-10T22:44:19.333Z,11.07
2022-09-10T22:46:49.316Z,10.70
2022-09-10T22:49:18.116Z,10.60
2022-09-10T22:51:46.532Z,10.63
2022-09-10T22:54:14.939Z,11.03
2022-09-10T22:56:44.557Z,11.00
2022-09-10T22:59:14.798Z,10.53
2022-09-10T23:01:47.692Z,10.87
2022-09-10T23:04:17.637Z,11.23
2022-09-10T23:06:46.389Z,11.13
2022-09-10T23:09:17.001Z,10.33
2022-09-10T23:11:46.090Z,10.47
2022-09-10T23:14:17.928Z,10.70
2022-09-10T23:16:48.482Z,10.97
2022-09-10T23:19:20.314Z,10.50
2022-09-10T23:21:51.204Z,10.50
2022-09-10T23:24:21.025Z,11.07
2022-09-10T23:26:49.503Z,10.97
2022-09-10T23:29:18.223Z,10.60
2022-09-10T23:31:47.621Z,11.03
2022-09-10T23:34:19.175Z,10.93
2022-09-10T23:36:49.538Z,10.43
2022-09-10T23:39:20.622Z,10.57
2022-09-10T23:41:49.347Z,11.20
2022-09-10T23:44:18.029Z,10.90
2022-09-10T23:46:46.296Z,11.00
2022-09-10T23:49:14.607Z,10.43
2022-09-10T23:51:44.439Z,10.70
2022-09-10T23:54:13.244Z,10.57
2022-09-10T23:56:41.818Z,10.57
2022-09-10T23:59:10.414Z,10.60
